Time;durP1;ratioP1;P1;durP2;ratioP2;P2;SDS_P1;SDS_P2;PMS_P1;PMS_P2;Temp;Humidity;BMP_temperature;BMP_pressure;BME280_temperature;BME280_humidity;BME280_pressure;Samples;Min_cycle;Max_cycle;Signal;HPM_P1;HPM_P2
2023/09/19 00:00:19;;;;;;;;;;;;;;;29.09;40.68;94166.16;5011196;28;7085;-55
2023/09/19 00:03:15;;;;;;;;;;;;;;;29.10;40.56;94173.94;5027338;28;7217;-55
2023/09/19 00:05:44;;;;;;;;;;;;;;;29.10;40.14;94179.47;5007863;28;6986;-55
2023/09/19 00:08:10;;;;;;;;;;;;;;;29.09;40.67;94189.06;5004183;28;8784;-55
2023/09/19 00:10:45;;;;;;;;;;;;;;;29.10;41.28;94179.47;5010406;28;7212;-55
2023/09/19 00:13:24;;;;;;;;;;;;;;;29.09;40.61;94177.25;4994058;28;7260;-55
2023/09/19 00:16:11;;;;;;;;;;;;;;;29.08;40.52;94186.81;4990264;28;7001;-55
2023/09/19 00:18:48;;;;;;;;;;;;;;;29.05;41.16;94185.91;4990096;28;7257;-55
2023/09/19 00:21:26;;;;;;;;;;;;;;;29.06;40.16;94190.13;4992260;28;8023;-55
2023/09/19 00:23:58;;;;;;;;;;;;;;;29.06;40.25;94194.94;5010129;28;7264;-55
2023/09/19 00:26:30;;;;;;;;;;;;;;;29.04;40.29;94187.16;5006079;28;7478;-55
2023/09/19 00:28:59;;;;;;;;;;;;;;;29.04;41.16;94181.63;5001345;28;9283;-55
2023/09/19 00:31:29;;;;;;;;;;;;;;;29.05;40.81;94183.13;5002234;28;6932;-55
2023/09/19 00:33:59;;;;;;;;;;;;;;;29.03;40.77;94179.41;4987375;28;7255;-55
2023/09/19 00:36:26;;;;;;;;;;;;;;;29.02;40.96;94183.44;4986941;28;7250;-55
2023/09/19 00:38:52;;;;;;;;;;;;;;;29.02;40.29;94189.72;5000318;28;7043;-55
2023/09/19 00:41:21;;;;;;;;;;;;;;;29.00;40.40;94183.25;5004952;28;7150;-55
2023/09/19 00:43:51;;;;;;;;;;;;;;;29.02;40.75;94183.44;5019304;28;6999;-55
2023/09/19 00:46:17;;;;;;;;;;;;;;;29.01;40.05;94182.69;5021136;28;8736;-55
2023/09/19 00:48:43;;;;;;;;;;;;;;;28.98;40.68;94178.25;5008062;28;7399;-55
2023/09/19 00:51:11;;;;;;;;;;;;;;;28.98;40.76;94171.97;5009432;28;7236;-55
2023/09/19 00:53:39;;;;;;;;;;;;;;;29.00;40.03;94174.94;5002373;28;7217;-55
2023/09/19 00:56:09;;;;;;;;;;;;;;;29.00;40.20;94161.84;5006721;28;7396;-55
2023/09/19 00:58:37;;;;;;;;;;;;;;;29.00;40.71;94163.84;5001694;28;9286;-55
2023/09/19 01:01:06;;;;;;;;;;;;;;;28.98;40.15;94161.63;5002433;28;7295;-55
2023/09/19 01:03:44;;;;;;;;;;;;;;;28.96;40.84;94166.22;4998600;28;7007;-56
2023/09/19 01:06:10;;;;;;;;;;;;;;;28.99;40.50;94179.00;5012751;28;7733;-56
2023/09/19 01:08:39;;;;;;;;;;;;;;;28.96;41.03;94177.28;5007355;28;9781;-56
2023/09/19 01:11:45;;;;;;;;;;;;;;;28.98;40.06;94186.56;5031453;28;7264;-56
2023/09/19 01:15:09;;;;;;;;;;;;;;;28.99;40.26;94190.78;5014777;28;7064;-56
2023/09/19 01:17:45;;;;;;;;;;;;;;;28.99;40.80;94193.56;5028291;28;7408;-56
2023/09/19 01:20:49;;;;;;;;;;;;;;;28.98;40.70;94183.78;5025214;28;7272;-56
2023/09/19 01:23:27;;;;;;;;;;;;;;;28.95;40.69;94190.38;4977916;28;9210;-56
2023/09/19 01:26:49;;;;;;;;;;;;;;;28.96;40.57;94191.88;4973653;28;7268;-56
2023/09/19 01:29:53;;;;;;;;;;;;;;;28.95;40.83;94195.94;4992335;28;7068;-56
2023/09/19 01:32:21;;;;;;;;;;;;;;;28.94;40.70;94199.25;4989529;28;7638;-56
2023/09/19 01:35:03;;;;;;;;;;;;;;;28.96;40.25;94199.44;4988710;28;9082;-56
2023/09/19 01:37:31;;;;;;;;;;;;;;;28.93;40.81;94195.72;4975771;28;9325;-56
2023/09/19 01:40:16;;;;;;;;;;;;;;;28.93;40.69;94195.72;4972576;28;7452;-56
2023/09/19 01:42:56;;;;;;;;;;;;;;;28.94;40.09;94197.22;4989562;28;7258;-57
2023/09/19 01:45:57;;;;;;;;;;;;;;;28.93;41.04;94204.03;4977020;28;9155;-56
2023/09/19 01:48:55;;;;;;;;;;;;;;;28.94;41.00;94204.78;4976646;28;9113;-56
2023/09/19 01:51:37;;;;;;;;;;;;;;;28.92;41.15;94201.81;4993118;28;9030;-56
2023/09/19 01:54:16;;;;;;;;;;;;;;;28.91;40.78;94206.59;4984939;28;7276;-56
2023/09/19 02:00:06;;;;;;;;;;;;;;;28.93;40.63;94211.59;4994542;28;9488;-56
2023/09/19 02:02:50;;;;;;;;;;;;;;;28.92;40.50;94205.31;5014136;28;9099;-56
2023/09/19 02:05:29;;;;;;;;;;;;;;;28.93;40.79;94206.06;5028428;28;7475;-56
2023/09/19 02:07:56;;;;;;;;;;;;;;;28.93;40.76;94206.81;5012468;28;7223;-56
2023/09/19 02:10:23;;;;;;;;;;;;;;;28.90;40.12;94196.06;5027953;28;7105;-56
2023/09/19 02:12:59;;;;;;;;;;;;;;;28.91;41.23;94203.81;5031385;28;7614;-63
2023/09/19 02:15:46;;;;;;;;;;;;;;;28.86;41.04;94199.16;5009402;28;7262;-63
2023/09/19 02:18:15;;;;;;;;;;;;;;;28.89;40.38;94203.63;5012052;28;8554;-62
2023/09/19 02:20:53;;;;;;;;;;;;;;;28.91;40.03;94206.59;5025713;28;8742;-62
2023/09/19 02:23:20;;;;;;;;;;;;;;;28.89;40.95;94203.63;5001848;28;7278;-63
2023/09/19 02:26:03;;;;;;;;;;;;;;;28.89;41.02;94208.41;5011572;28;8799;-62
2023/09/19 02:28:32;;;;;;;;;;;;;;;28.90;40.98;94210.66;5025280;28;8155;-62
2023/09/19 02:31:00;;;;;;;;;;;;;;;28.87;40.03;94214.50;5004729;28;7550;-62
2023/09/19 02:33:46;;;;;;;;;;;;;;;28.89;41.13;94216.72;5011225;28;7319;-62
2023/09/19 02:36:17;;;;;;;;;;;;;;;28.90;40.68;94216.19;5026794;28;8754;-62
2023/09/19 02:38:47;;;;;;;;;;;;;;;28.88;40.35;94218.00;5028508;28;7249;-62
2023/09/19 02:41:14;;;;;;;;;;;;;;;28.88;40.19;94223.53;5004392;28;7000;-62
2023/09/19 02:43:40;;;;;;;;;;;;;;;28.87;40.01;94217.25;5009893;28;7072;-62
2023/09/19 02:46:07;;;;;;;;;;;;;;;28.88;40.54;94224.28;5009235;28;9013;-63
2023/09/19 02:48:35;;;;;;;;;;;;;;;28.87;40.13;94217.25;5007126;28;7251;-63
2023/09/19 02:51:04;;;;;;;;;;;;;;;28.88;40.55;94221.50;5011688;28;9435;-62
2023/09/19 02:53:31;;;;;;;;;;;;;;;28.87;40.52;94224.81;5016332;28;7357;-62
2023/09/19 02:56:01;;;;;;;;;;;;;;;28.89;40.94;94227.78;5000512;28;7491;-62
2023/09/19 02:58:37;;;;;;;;;;;;;;;28.87;40.42;94225.56;5007912;28;8797;-62
2023/09/19 03:01:28;;;;;;;;;;;;;;;28.86;40.71;94228.88;5027234;28;9108;-62
2023/09/19 03:04:06;;;;;;;;;;;;;;;28.86;40.35;94231.66;5003824;28;7160;-62
2023/09/19 03:06:32;;;;;;;;;;;;;;;28.86;40.66;94221.28;5012603;28;8921;-62
2023/09/19 03:09:11;;;;;;;;;;;;;;;28.87;40.29;94233.88;5006320;28;8911;-62
2023/09/19 03:11:42;;;;;;;;;;;;;;;28.88;41.07;94227.03;5010064;28;7424;-62
2023/09/19 03:14:36;;;;;;;;;;;;;;;28.88;40.93;94226.31;5013605;28;7491;-63
2023/09/19 03:17:11;;;;;;;;;;;;;;;28.86;40.39;94224.06;4948136;28;7173;-62
2023/09/19 03:19:40;;;;;;;;;;;;;;;28.83;40.94;94221.63;4942611;28;8707;-63
2023/09/19 03:22:19;;;;;;;;;;;;;;;28.84;40.71;94231.44;4963605;28;6932;-63
2023/09/19 03:25:14;;;;;;;;;;;;;;;28.85;40.96;94224.59;4946360;28;7241;-62
2023/09/19 03:27:44;;;;;;;;;;;;;;;28.83;40.59;94224.41;4950983;28;8757;-62
2023/09/19 03:30:45;;;;;;;;;;;;;;;28.83;40.46;94222.38;4967951;28;7089;-62
2023/09/19 03:33:28;;;;;;;;;;;;;;;28.81;40.74;94224.94;4860585;29;7059;-62
2023/09/19 03:36:04;;;;;;;;;;;;;;;28.81;40.88;94219.41;4877019;29;6994;-62
2023/09/19 03:38:41;;;;;;;;;;;;;;;28.83;40.18;94216.84;4876134;29;9345;-62
2023/09/19 03:41:17;;;;;;;;;;;;;;;28.81;40.83;94208.34;4858147;29;7279;-61
2023/09/19 03:43:53;;;;;;;;;;;;;;;28.82;40.42;94215.34;4884908;29;8783;-62
2023/09/19 03:46:24;;;;;;;;;;;;;;;28.81;40.68;94213.13;4884790;29;7320;-62
2023/09/19 03:48:50;;;;;;;;;;;;;;;28.80;40.13;94220.69;4857277;29;8886;-62
2023/09/19 03:51:19;;;;;;;;;;;;;;;28.81;40.95;94218.66;4862397;29;7177;-62
2023/09/19 03:53:57;;;;;;;;;;;;;;;28.81;40.14;94221.44;4901637;29;7925;-62
2023/09/19 03:56:26;;;;;;;;;;;;;;;28.80;40.77;94220.69;4927350;29;7354;-62
2023/09/19 03:59:18;;;;;;;;;;;;;;;28.80;40.28;94223.44;4914096;29;7254;-62
2023/09/19 04:02:22;;;;;;;;;;;;;;;28.80;40.61;94217.16;4925948;29;7370;-62
2023/09/19 04:04:52;;;;;;;;;;;;;;;28.79;40.83;94205.38;4898526;29;7387;-62
2023/09/19 04:07:25;;;;;;;;;;;;;;;28.81;40.22;94202.06;4914255;29;7315;-62
2023/09/19 04:10:14;;;;;;;;;;;;;;;28.80;40.52;94206.84;4932961;28;7381;-62
2023/09/19 04:16:58;;;;;;;;;;;;;;;28.77;40.81;94196.09;4911335;29;7049;-62
2023/09/19 04:19:27;;;;;;;;;;;;;;;28.72;40.52;94194.19;4912412;29;7185;-62
2023/09/19 04:21:54;;;;;;;;;;;;;;;28.74;40.16;94195.16;4911032;29;7019;-62
2023/09/19 04:24:32;;;;;;;;;;;;;;;28.76;40.28;94194.59;4893963;29;7159;-62
2023/09/19 04:27:16;;;;;;;;;;;;;;;28.76;40.83;94200.13;4913529;29;9340;-62
2023/09/19 04:29:43;;;;;;;;;;;;;;;28.72;40.05;94192.19;4912397;29;7578;-62
2023/09/19 04:32:32;;;;;;;;;;;;;;;28.75;40.40;94198.66;4913634;29;8686;-62
2023/09/19 04:35:01;;;;;;;;;;;;;;;28.78;40.91;94201.09;4893346;29;7893;-56
2023/09/19 04:37:28;;;;;;;;;;;;;;;28.78;40.70;94206.63;4909033;29;8976;-56
2023/09/19 04:39:56;;;;;;;;;;;;;;;28.78;41.12;94214.94;4887539;29;7149;-56
2023/09/19 04:42:40;;;;;;;;;;;;;;;28.76;40.49;94211.97;4929581;28;7437;-56
2023/09/19 04:45:20;;;;;;;;;;;;;;;28.76;41.04;94225.81;4948455;28;7413;-56
2023/09/19 04:48:26;;;;;;;;;;;;;;;28.76;40.92;94225.06;4949367;28;6991;-56
2023/09/19 04:50:59;;;;;;;;;;;;;;;28.74;40.92;94225.59;4968172;28;8628;-56
2023/09/19 04:53:25;;;;;;;;;;;;;;;28.72;40.64;94222.63;5005570;28;7239;-55
2023/09/19 04:55:58;;;;;;;;;;;;;;;28.76;39.99;94236.13;5006399;28;7208;-56
2023/09/19 04:58:24;;;;;;;;;;;;;;;28.74;40.71;94231.13;5007655;28;8732;-56
2023/09/19 05:00:54;;;;;;;;;;;;;;;28.76;40.49;94239.66;5004980;28;7009;-58
2023/09/19 05:03:22;;;;;;;;;;;;;;;28.77;40.69;94240.41;4999490;28;7096;-56
2023/09/19 05:05:50;;;;;;;;;;;;;;;28.74;40.25;94233.91;5005991;28;7256;-56
2023/09/19 05:08:15;;;;;;;;;;;;;;;28.75;40.83;94242.97;5006980;28;7206;-56
2023/09/19 05:10:41;;;;;;;;;;;;;;;28.74;41.35;94247.75;5010655;28;7284;-56
2023/09/19 05:13:39;;;;;;;;;;;;;;;28.76;41.01;94252.72;5020341;28;7246;-56
2023/09/19 05:16:05;;;;;;;;;;;;;;;28.74;40.50;94253.28;4950831;28;7595;-56
2023/09/19 05:18:45;;;;;;;;;;;;;;;28.77;41.10;94262.53;4968617;28;8665;-56
2023/09/19 05:21:28;;;;;;;;;;;;;;;28.76;40.61;94258.28;4968458;28;7374;-56
2023/09/19 05:23:56;;;;;;;;;;;;;;;28.72;40.79;94260.63;4944329;28;9153;-56
2023/09/19 05:26:26;;;;;;;;;;;;;;;28.74;41.34;94269.88;4966533;28;7136;-56
2023/09/19 05:29:08;;;;;;;;;;;;;;;28.77;41.39;94268.81;4951293;28;7491;-56
2023/09/19 05:31:40;;;;;;;;;;;;;;;28.77;41.33;94270.84;4963356;28;7278;-56
2023/09/19 05:34:19;;;;;;;;;;;;;;;28.76;41.07;94270.09;4960427;28;9075;-56
2023/09/19 05:37:03;;;;;;;;;;;;;;;28.75;43.80;94270.63;4964855;28;8785;-57
2023/09/19 05:39:39;;;;;;;;;;;;;;;28.79;41.81;94277.34;4964138;28;7219;-56
2023/09/19 05:42:05;;;;;;;;;;;;;;;28.78;41.88;94281.38;4944983;28;7917;-56
2023/09/19 05:44:42;;;;;;;;;;;;;;;28.75;41.81;94281.72;4967838;28;7236;-55
2023/09/19 05:47:22;;;;;;;;;;;;;;;28.75;41.58;94301.81;4948344;28;7231;-55
2023/09/19 05:49:57;;;;;;;;;;;;;;;28.76;41.76;94305.31;4971248;28;7212;-55
2023/09/19 05:52:25;;;;;;;;;;;;;;;28.76;40.95;94305.31;4984200;28;7188;-55
2023/09/19 05:55:29;;;;;;;;;;;;;;;28.77;41.39;94307.59;5014872;28;9090;-55
2023/09/19 05:57:56;;;;;;;;;;;;;;;28.74;41.23;94311.41;5001489;28;7086;-55
2023/09/19 06:00:42;;;;;;;;;;;;;;;28.74;41.43;94319.72;5007135;28;7221;-55
2023/09/19 06:03:09;;;;;;;;;;;;;;;28.74;40.89;94314.16;5011305;28;7029;-55
2023/09/19 06:05:41;;;;;;;;;;;;;;;28.73;41.97;94318.22;5005886;28;7263;-55
2023/09/19 06:08:07;;;;;;;;;;;;;;;28.74;41.57;94316.19;5014665;28;8839;-54
2023/09/19 06:10:53;;;;;;;;;;;;;;;28.74;41.41;94322.47;5016698;28;7081;-55
2023/09/19 06:13:20;;;;;;;;;;;;;;;28.76;41.13;94322.69;5027761;28;6993;-55
2023/09/19 06:15:59;;;;;;;;;;;;;;;28.72;41.27;94322.28;5006337;28;9195;-55
2023/09/19 06:18:36;;;;;;;;;;;;;;;28.72;41.63;94321.50;5014148;28;8478;-55
2023/09/19 06:21:07;;;;;;;;;;;;;;;28.70;41.75;94322.06;5024590;28;7238;-55
2023/09/19 06:23:35;;;;;;;;;;;;;;;28.70;41.46;94311.00;5009152;28;7015;-56
2023/09/19 06:26:06;;;;;;;;;;;;;;;28.72;41.80;94313.97;5006153;28;6991;-55
2023/09/19 06:28:43;;;;;;;;;;;;;;;28.72;41.83;94311.19;4998719;28;8767;-55
2023/09/19 06:31:12;;;;;;;;;;;;;;;28.71;41.64;94314.50;5029408;28;8764;-55
2023/09/19 06:33:39;;;;;;;;;;;;;;;28.73;41.29;94317.47;5027506;28;8816;-55
2023/09/19 06:36:38;;;;;;;;;;;;;;;28.74;41.04;94313.41;5011457;28;6993;-55
2023/09/19 06:39:06;;;;;;;;;;;;;;;28.73;41.84;94315.44;4992274;28;7008;-55
2023/09/19 06:41:53;;;;;;;;;;;;;;;28.74;41.01;94325.25;4983500;28;9140;-55
2023/09/19 06:44:24;;;;;;;;;;;;;;;28.71;41.29;94317.28;4988246;28;7379;-55
2023/09/19 06:47:06;;;;;;;;;;;;;;;28.72;41.65;94311.19;4985649;28;7224;-55
2023/09/19 06:49:51;;;;;;;;;;;;;;;28.73;41.71;94325.78;4992209;28;9082;-55
2023/09/19 06:52:32;;;;;;;;;;;;;;;28.74;40.99;94324.50;4983424;28;7518;-55
2023/09/19 06:54:58;;;;;;;;;;;;;;;28.74;40.77;94335.56;4973641;28;7310;-57
2023/09/19 06:58:00;;;;;;;;;;;;;;;28.74;40.77;94333.53;4988912;28;7400;-56
2023/09/19 07:00:31;;;;;;;;;;;;;;;28.71;41.43;94334.59;4950318;28;7219;-57
2023/09/19 07:03:11;;;;;;;;;;;;;;;28.70;41.70;94346.97;4952204;28;7073;-56
2023/09/19 07:05:50;;;;;;;;;;;;;;;28.71;41.65;94348.44;4950498;28;7483;-57
2023/09/19 07:08:16;;;;;;;;;;;;;;;28.70;41.82;94340.69;4950621;28;7170;-56
2023/09/19 07:10:54;;;;;;;;;;;;;;;28.70;41.76;94351.75;4957181;28;9369;-57
2023/09/19 07:13:21;;;;;;;;;;;;;;;28.71;41.02;94347.72;4948171;28;6996;-57
2023/09/19 07:15:47;;;;;;;;;;;;;;;28.74;40.89;94354.94;4983990;28;7239;-56
2023/09/19 07:18:16;;;;;;;;;;;;;;;28.73;41.70;94362.50;4990654;28;7419;-56
2023/09/19 07:20:54;;;;;;;;;;;;;;;28.69;41.44;94351.00;4975262;28;7294;-56
2023/09/19 07:24:03;;;;;;;;;;;;;;;28.70;41.33;94363.56;4991411;28;7132;-56
2023/09/19 07:26:39;;;;;;;;;;;;;;;28.70;40.82;94363.56;4991421;28;7237;-56
2023/09/19 07:29:08;;;;;;;;;;;;;;;28.68;41.46;94366.13;4983380;28;7171;-56
2023/09/19 07:31:34;;;;;;;;;;;;;;;28.69;41.79;94367.59;4986694;28;9154;-56
2023/09/19 07:34:09;;;;;;;;;;;;;;;28.70;41.27;94374.66;4976375;28;7250;-57
2023/09/19 07:36:37;;;;;;;;;;;;;;;28.70;41.36;94374.66;5009672;28;9057;-56
2023/09/19 07:39:06;;;;;;;;;;;;;;;28.72;41.88;94377.63;5022266;28;9044;-56
2023/09/19 07:41:40;;;;;;;;;;;;;;;28.68;41.17;94373.69;5025391;28;8835;-56
2023/09/19 07:44:11;;;;;;;;;;;;;;;28.69;41.58;94383.47;5016286;28;7313;-57
2023/09/19 07:46:53;;;;;;;;;;;;;;;28.69;41.48;94375.91;5005435;28;8742;-56
2023/09/19 07:49:21;;;;;;;;;;;;;;;28.70;40.76;94379.44;5024566;28;7431;-56
2023/09/19 07:51:54;;;;;;;;;;;;;;;28.70;41.06;94393.28;5008106;28;8963;-56
2023/09/19 07:54:21;;;;;;;;;;;;;;;28.67;41.83;94386.78;5010721;28;7073;-56
2023/09/19 07:56:48;;;;;;;;;;;;;;;28.68;41.91;94393.06;5010798;28;7201;-56
2023/09/19 07:59:16;;;;;;;;;;;;;;;28.69;42.05;94386.97;5021116;28;7475;-56
2023/09/19 08:01:44;;;;;;;;;;;;;;;28.69;41.06;94398.06;5010960;28;8461;-57
2023/09/19 08:04:21;;;;;;;;;;;;;;;28.70;41.59;94398.81;5010507;28;7419;-61
2023/09/19 08:06:51;;;;;;;;;;;;;;;28.69;41.11;94394.53;5026438;28;7068;-60
2023/09/19 08:09:20;;;;;;;;;;;;;;;28.71;41.68;94392.72;5008247;28;9073;-61
2023/09/19 08:11:47;;;;;;;;;;;;;;;28.72;41.65;94402.53;5004244;28;7605;-61
2023/09/19 08:14:15;;;;;;;;;;;;;;;28.73;41.26;94398.47;5004803;28;7088;-61
2023/09/19 08:16:45;;;;;;;;;;;;;;;28.71;41.80;94408.63;5001608;28;7207;-61
2023/09/19 08:19:11;;;;;;;;;;;;;;;28.70;41.52;94407.88;5025236;28;7116;-61
2023/09/19 08:21:47;;;;;;;;;;;;;;;28.68;41.57;94404.13;5008141;28;7304;-62
2023/09/19 08:24:14;;;;;;;;;;;;;;;28.68;40.93;94407.66;5022443;28;8202;-61
2023/09/19 08:26:46;;;;;;;;;;;;;;;28.68;41.34;94406.91;5004241;28;6970;-62
2023/09/19 08:29:18;;;;;;;;;;;;;;;28.68;40.86;94415.19;5008473;28;8755;-63
2023/09/19 08:31:50;;;;;;;;;;;;;;;28.67;41.36;94419.22;5009716;28;7240;-61
2023/09/19 08:34:19;;;;;;;;;;;;;;;28.66;41.10;94418.50;5002004;28;8849;-62
2023/09/19 08:36:57;;;;;;;;;;;;;;;28.68;41.31;94413.19;5007547;28;9313;-62
2023/09/19 08:39:25;;;;;;;;;;;;;;;28.68;41.31;94424.25;5011428;28;6978;-62
2023/09/19 08:42:12;;;;;;;;;;;;;;;28.68;41.77;94420.72;5004026;28;7077;-62
2023/09/19 08:44:48;;;;;;;;;;;;;;;28.68;41.73;94424.25;5006934;28;9132;-61
2023/09/19 08:47:33;;;;;;;;;;;;;;;28.68;40.75;94418.72;5027144;28;7037;-62
2023/09/19 08:50:42;;;;;;;;;;;;;;;28.69;41.60;94416.69;5007339;28;7251;-62
2023/09/19 08:53:25;;;;;;;;;;;;;;;28.68;41.72;94426.28;5025038;28;9117;-61
2023/09/19 08:55:56;;;;;;;;;;;;;;;28.68;41.39;94423.50;5004279;28;9068;-61
2023/09/19 08:58:31;;;;;;;;;;;;;;;28.67;40.91;94431.06;5010838;28;7215;-61
2023/09/19 09:01:06;;;;;;;;;;;;;;;28.66;40.56;94432.34;5010142;28;9585;-61
2023/09/19 09:04:12;;;;;;;;;;;;;;;28.69;41.50;94434.03;5006285;28;8848;-61
2023/09/19 09:07:12;;;;;;;;;;;;;;;28.69;41.40;94433.28;5006474;28;7270;-61
2023/09/19 09:09:44;;;;;;;;;;;;;;;28.69;41.23;94436.06;5023500;28;7461;-61
2023/09/19 09:12:25;;;;;;;;;;;;;;;28.69;41.57;94428.50;5008389;28;8939;-61
2023/09/19 09:15:00;;;;;;;;;;;;;;;28.69;41.33;94434.03;5023840;28;8332;-61
2023/09/19 09:17:29;;;;;;;;;;;;;;;28.68;41.13;94427.03;5006075;28;7286;-61
2023/09/19 09:19:57;;;;;;;;;;;;;;;28.70;40.87;94435.53;5008383;28;7022;-60
2023/09/19 09:22:27;;;;;;;;;;;;;;;28.70;41.60;94435.53;5023645;28;7111;-61
2023/09/19 09:25:03;;;;;;;;;;;;;;;28.70;41.61;94435.53;5007201;28;9069;-63
2023/09/19 09:27:31;;;;;;;;;;;;;;;28.70;41.15;94438.31;5011572;28;8815;-62
2023/09/19 09:29:57;;;;;;;;;;;;;;;28.67;41.12;94431.06;5013386;28;7211;-63
2023/09/19 09:32:37;;;;;;;;;;;;;;;28.69;41.48;94442.34;5014482;28;9185;-63
2023/09/19 09:35:11;;;;;;;;;;;;;;;28.69;40.83;94436.81;5015212;28;9070;-63
2023/09/19 09:37:43;;;;;;;;;;;;;;;28.68;41.32;94437.34;5028516;28;7274;-63
2023/09/19 09:42:49;;;;;;;;;;;;;;;28.64;41.03;94434.16;5003638;28;7084;-64
2023/09/19 09:48:03;;;;;;;;;;;;;;;28.65;41.53;94433.59;5011083;28;8763;-64
2023/09/19 09:50:51;;;;;;;;;;;;;;;28.67;40.93;94433.81;5009991;28;7229;-64
2023/09/19 09:53:30;;;;;;;;;;;;;;;28.65;41.08;94430.09;5010538;28;6992;-64
2023/09/19 09:56:11;;;;;;;;;;;;;;;28.65;40.55;94439.16;5010707;28;6852;-64
2023/09/19 09:58:54;;;;;;;;;;;;;;;28.65;40.47;94430.09;4991264;28;7273;-64
2023/09/19 10:01:26;;;;;;;;;;;;;;;28.68;40.76;94438.09;5012502;28;7473;-63
2023/09/19 10:04:06;;;;;;;;;;;;;;;28.69;40.49;94434.03;5010565;28;7276;-63
2023/09/19 10:06:47;;;;;;;;;;;;;;;28.70;41.57;94430.00;4997709;28;8907;-63
2023/09/19 10:09:36;;;;;;;;;;;;;;;28.72;40.93;94437.78;4996992;28;6995;-63
2023/09/19 10:12:21;;;;;;;;;;;;;;;28.71;41.20;94431.47;4997696;28;9647;-62
2023/09/19 10:15:02;;;;;;;;;;;;;;;28.68;40.99;94426.28;4998322;28;8797;-62
2023/09/19 10:17:48;;;;;;;;;;;;;;;28.67;41.20;94428.28;5009929;28;7152;-62
2023/09/19 10:23:12;;;;;;;;;;;;;;;28.73;42.17;94431.69;5014251;28;7255;-63
2023/09/19 10:25:40;;;;;;;;;;;;;;;28.72;42.25;94423.94;4993452;28;9106;-63
2023/09/19 10:28:11;;;;;;;;;;;;;;;28.71;42.42;94428.00;5006425;28;7258;-63
2023/09/19 10:30:51;;;;;;;;;;;;;;;28.68;43.11;94420.72;4998081;28;7242;-63
2023/09/19 10:33:21;;;;;;;;;;;;;;;28.69;42.55;94425.72;5015118;28;7683;-62
2023/09/19 10:35:57;;;;;;;;;;;;;;;28.68;42.96;94410.41;5008620;28;7263;-62
2023/09/19 10:38:54;;;;;;;;;;;;;;;28.68;42.65;94420.72;5013613;28;7338;-62
2023/09/19 10:41:34;;;;;;;;;;;;;;;28.68;42.52;94417.97;4967942;28;7308;-62
2023/09/19 10:44:31;;;;;;;;;;;;;;;28.68;42.49;94412.44;4972697;28;7897;-62
2023/09/19 10:47:19;;;;;;;;;;;;;;;28.67;42.78;94411.69;4969206;28;7240;-61
2023/09/19 10:49:47;;;;;;;;;;;;;;;28.70;42.47;94416.16;4960237;28;7432;-61
2023/09/19 10:52:40;;;;;;;;;;;;;;;28.73;42.42;94417.13;4968587;28;7001;-61
2023/09/19 10:55:18;;;;;;;;;;;;;;;28.74;42.69;94418.59;4953312;28;9759;-62
2023/09/19 10:57:53;;;;;;;;;;;;;;;28.74;42.88;94416.59;4970609;28;8827;-62
2023/09/19 11:00:57;;;;;;;;;;;;;;;28.76;42.56;94411.28;4973397;28;7334;-62
2023/09/19 11:03:32;;;;;;;;;;;;;;;28.78;41.94;94419.78;4929672;28;7318;-62
2023/09/19 11:06:13;;;;;;;;;;;;;;;28.80;41.78;94416.47;4926555;28;7445;-62
2023/09/19 11:08:58;;;;;;;;;;;;;;;28.79;42.50;94418.53;4924868;28;8736;-62
2023/09/19 11:11:39;;;;;;;;;;;;;;;28.79;42.09;94415.00;4927948;28;7560;-62
2023/09/19 11:14:24;;;;;;;;;;;;;;;28.82;41.83;94409.13;4913796;29;7256;-62
2023/09/19 11:17:11;;;;;;;;;;;;;;;28.86;42.11;94414.38;4918231;29;8733;-62
2023/09/19 11:22:56;;;;;;;;;;;;;;;28.84;42.55;94412.13;4943204;28;9122;-62
2023/09/19 11:25:47;;;;;;;;;;;;;;;28.84;43.03;94406.56;4939097;28;8985;-62
2023/09/19 11:28:17;;;;;;;;;;;;;;;28.84;42.15;94406.56;4941793;28;7374;-62
2023/09/19 11:30:52;;;;;;;;;;;;;;;28.86;41.64;94404.03;4945032;28;8815;-62
2023/09/19 11:33:38;;;;;;;;;;;;;;;28.87;42.21;94402.75;4941155;28;7100;-62
2023/09/19 11:36:08;;;;;;;;;;;;;;;28.86;42.40;94400.53;4941236;28;7166;-62
2023/09/19 11:38:45;;;;;;;;;;;;;;;28.86;42.91;94390.19;4989959;28;9119;-62
2023/09/19 11:41:25;;;;;;;;;;;;;;;28.87;41.64;94388.91;4984694;28;6946;-63
2023/09/19 11:43:54;;;;;;;;;;;;;;;28.90;41.61;94390.63;5009068;28;8229;-57
2023/09/19 11:46:23;;;;;;;;;;;;;;;28.91;42.26;94389.34;4994642;28;7151;-57
2023/09/19 11:49:13;;;;;;;;;;;;;;;28.97;42.57;94397.53;4995065;28;9219;-57
2023/09/19 11:51:44;;;;;;;;;;;;;;;28.98;41.71;94382.41;5008300;28;7423;-57
2023/09/19 11:54:21;;;;;;;;;;;;;;;28.98;41.92;94382.41;5007833;28;6994;-57
2023/09/19 11:56:54;;;;;;;;;;;;;;;28.99;42.23;94387.41;5004486;28;7003;-57
2023/09/19 11:59:29;;;;;;;;;;;;;;;28.99;41.39;94379.09;5008402;28;7238;-57
2023/09/19 12:02:03;;;;;;;;;;;;;;;28.99;41.65;94368.03;4978661;28;9349;-57
2023/09/19 12:04:59;;;;;;;;;;;;;;;29.02;41.55;94369.72;4990012;28;6994;-57
2023/09/19 12:07:27;;;;;;;;;;;;;;;29.01;41.75;94373.03;4990602;28;7908;-57
2023/09/19 12:10:17;;;;;;;;;;;;;;;29.01;41.97;94376.53;5010219;28;7272;-57
2023/09/19 12:12:56;;;;;;;;;;;;;;;29.02;41.71;94360.66;4994817;28;7079;-57
2023/09/19 12:15:28;;;;;;;;;;;;;;;29.00;41.82;94358.44;4995319;28;7470;-56
2023/09/19 12:17:54;;;;;;;;;;;;;;;28.99;41.76;94356.94;4990979;28;6993;-56
2023/09/19 12:20:23;;;;;;;;;;;;;;;29.00;41.55;94352.91;5009943;28;7394;-56
2023/09/19 12:22:49;;;;;;;;;;;;;;;28.98;41.64;94347.16;4989831;28;7090;-56
2023/09/19 12:25:56;;;;;;;;;;;;;;;29.02;42.14;94346.81;4999633;28;9016;-56
2023/09/19 12:28:27;;;;;;;;;;;;;;;29.02;42.19;94342.03;4998309;28;9059;-56
2023/09/19 12:31:08;;;;;;;;;;;;;;;29.07;42.24;94334.91;5011553;28;10143;-56
2023/09/19 12:33:37;;;;;;;;;;;;;;;29.08;41.59;94341.91;4993876;28;7378;-56
2023/09/19 12:36:29;;;;;;;;;;;;;;;29.07;42.21;94330.09;5008545;28;7228;-57
2023/09/19 12:39:09;;;;;;;;;;;;;;;29.10;42.31;94337.34;5007028;28;8784;-57
2023/09/19 12:41:39;;;;;;;;;;;;;;;29.14;42.51;94334.25;5011551;28;9342;-57
2023/09/19 12:44:24;;;;;;;;;;;;;;;29.15;41.64;94334.97;5010689;28;7335;-57
2023/09/19 12:47:09;;;;;;;;;;;;;;;29.18;42.04;94329.16;5001538;28;8446;-57
2023/09/19 12:53:04;;;;;;;;;;;;;;;29.17;40.98;94332.47;5010947;28;7250;-61
2023/09/19 12:55:41;;;;;;;;;;;;;;;29.17;41.50;94322.09;4991429;28;9070;-61
2023/09/19 12:58:31;;;;;;;;;;;;;;;29.18;40.68;94314.56;4993363;28;8144;-61
2023/09/19 13:00:58;;;;;;;;;;;;;;;29.18;41.39;94318.06;4998689;28;7241;-61
2023/09/19 13:03:34;;;;;;;;;;;;;;;29.19;41.44;94313.28;4996467;28;7713;-61
2023/09/19 13:06:04;;;;;;;;;;;;;;;29.22;40.79;94310.19;5006213;28;7874;-61
2023/09/19 13:08:38;;;;;;;;;;;;;;;29.24;41.67;94304.09;4985502;28;8731;-61
2023/09/19 13:15:19;;;;;;;;;;;;;;;29.28;40.70;94290.66;4955113;28;7250;-60
2023/09/19 13:18:18;;;;;;;;;;;;;;;29.28;41.59;94296.19;4953151;28;8905;-61
2023/09/19 13:21:22;;;;;;;;;;;;;;;29.27;41.50;94294.72;4887613;29;7187;-61
2023/09/19 13:24:27;;;;;;;;;;;;;;;29.32;40.99;94296.63;4878316;29;8075;-61
2023/09/19 13:26:56;;;;;;;;;;;;;;;29.35;41.04;94299.06;4900899;29;9095;-61
2023/09/19 13:29:31;;;;;;;;;;;;;;;29.35;40.48;94290.75;4896246;29;7255;-61
2023/09/19 13:31:58;;;;;;;;;;;;;;;29.37;41.01;94290.19;4890186;29;7264;-60
2023/09/19 13:35:10;;;;;;;;;;;;;;;29.38;40.54;94292.44;4877525;29;6986;-60
2023/09/19 13:37:51;;;;;;;;;;;;;;;29.41;41.16;94280.28;4895593;29;9117;-60
2023/09/19 13:40:17;;;;;;;;;;;;;;;29.42;40.41;94286.56;4895840;29;7283;-60
2023/09/19 13:42:57;;;;;;;;;;;;;;;29.42;40.74;94279.00;4898702;29;7246;-60
2023/09/19 13:45:31;;;;;;;;;;;;;;;29.43;40.64;94276.94;4895917;29;9067;-61
2023/09/19 13:48:08;;;;;;;;;;;;;;;29.44;41.14;94279.19;4896155;29;7072;-60
2023/09/19 13:50:43;;;;;;;;;;;;;;;29.50;41.23;94277.03;4898145;29;9114;-60
2023/09/19 13:53:40;;;;;;;;;;;;;;;29.51;41.19;94269.47;4915788;29;9089;-60
2023/09/19 13:56:14;;;;;;;;;;;;;;;29.52;40.58;94266.16;4900951;28;7112;-60
2023/09/19 13:58:42;;;;;;;;;;;;;;;29.55;40.44;94265.09;4950152;28;10538;-60
2023/09/19 14:01:12;;;;;;;;;;;;;;;29.55;40.19;94264.34;4932578;28;9459;-60
2023/09/19 14:03:46;;;;;;;;;;;;;;;29.58;40.69;94260.50;4946012;28;9079;-63
2023/09/19 14:06:18;;;;;;;;;;;;;;;29.60;40.83;94264.19;4948637;28;8630;-63
2023/09/19 14:08:47;;;;;;;;;;;;;;;29.60;40.77;94257.94;4950961;28;7264;-62
2023/09/19 14:11:26;;;;;;;;;;;;;;;29.64;40.76;94261.84;4939544;28;7551;-63
2023/09/19 14:13:58;;;;;;;;;;;;;;;29.64;40.82;94252.78;4949338;28;7226;-63